Terminal Aerodrome Forecast
Issued by NWS

Home | Current Version | Previous Version | Text Only | Print | Product List | Glossary On
Versions: 1 2 3 4 5 6 7 8 9 10 11 12 13 14 15 16 17
000
FTUS46 KMTR 291720
TAFMRY
TAF
KMRY 291720Z 2918/3018 00000KT 6SM BR OVC006
     FM291900 28005KT P6SM SCT007
      TEMPO 2919/2920 BKN007
     FM292000 29010KT P6SM FEW008
     FM300200 24005KT P6SM OVC006
     FM300900 VRB03KT P6SM OVC003
     FM301700 VRB04KT P6SM SCT007=

USA.gov is the U.S. government's official web portal to all federal, state and local government web resources and services.